createdAt,value
2022-10-11T00:01:17.632Z,2.50
2022-10-11T00:03:44.060Z,2.00
2022-10-11T00:06:10.543Z,1.90
2022-10-11T00:08:36.963Z,2.72
2022-10-11T00:11:06.478Z,2.30
2022-10-11T00:13:33.152Z,1.92
2022-10-11T00:15:59.561Z,1.50
2022-10-11T00:18:26.403Z,1.97
2022-10-11T00:21:01.702Z,4.50
2022-10-11T00:23:28.098Z,1.38
2022-10-11T00:26:02.365Z,3.17
2022-10-11T00:28:29.443Z,1.77
2022-10-11T00:30:55.850Z,2.10
2022-10-11T00:33:22.628Z,2.45
2022-10-11T00:35:49.149Z,1.75
2022-10-11T00:38:15.740Z,2.57
2022-10-11T00:40:42.113Z,2.53
2022-10-11T00:43:21.915Z,1.63
2022-10-11T00:45:57.297Z,1.63
2022-10-11T00:48:45.959Z,2.20
2022-10-11T00:51:18.056Z,2.10
2022-10-11T00:53:47.021Z,2.63
2022-10-11T00:56:20.453Z,3.37
2022-10-11T00:58:47.310Z,2.10
2022-10-11T01:01:13.794Z,3.00
2022-10-11T01:03:40.806Z,2.20
2022-10-11T01:06:08.056Z,2.17
2022-10-11T01:08:34.831Z,2.63
2022-10-11T01:11:01.612Z,2.53
2022-10-11T01:13:51.179Z,2.93
2022-10-11T01:16:39.503Z,2.07
2022-10-11T01:19:37.796Z,2.77
2022-10-11T01:22:36.032Z,2.20
2022-10-11T01:25:43.463Z,3.00
2022-10-11T01:28:27.609Z,4.03
2022-10-11T01:31:04.440Z,2.43
2022-10-11T01:33:43.608Z,3.10
2022-10-11T01:36:57.974Z,2.17
2022-10-11T01:39:31.523Z,2.60
2022-10-11T01:42:02.168Z,2.67
2022-10-11T01:44:30.177Z,2.73
2022-10-11T01:46:56.476Z,2.80
2022-10-11T01:49:22.887Z,3.00
2022-10-11T01:51:53.899Z,3.10
2022-10-11T01:55:09.310Z,3.00
2022-10-11T01:57:52.113Z,2.90
2022-10-11T02:00:21.886Z,2.43
2022-10-11T02:03:20.396Z,3.60
2022-10-11T02:06:01.154Z,3.77
2022-10-11T02:08:36.946Z,3.83
2022-10-11T02:11:24.402Z,3.90
2022-10-11T02:13:57.339Z,4.20
2022-10-11T02:16:36.296Z,4.43
2022-10-11T02:19:06.458Z,3.97
2022-10-11T02:21:36.193Z,4.40
2022-10-11T02:24:11.940Z,3.83
2022-10-11T02:26:42.911Z,4.40
2022-10-11T02:29:13.401Z,4.57
2022-10-11T02:31:41.927Z,3.80
2022-10-11T02:34:17.229Z,5.90
2022-10-11T02:36:59.337Z,4.70
2022-10-11T02:39:58.048Z,5.83
2022-10-11T02:42:33.876Z,6.40
2022-10-11T02:45:06.834Z,6.13
2022-10-11T02:47:33.843Z,5.67
2022-10-11T02:50:00.559Z,3.80
2022-10-11T02:52:26.940Z,4.67
2022-10-11T02:54:53.292Z,5.33
2022-10-11T02:57:19.767Z,6.40
2022-10-11T02:59:46.164Z,6.57
2022-10-11T03:02:12.542Z,8.20
2022-10-11T03:04:38.918Z,6.00
2022-10-11T03:07:05.326Z,5.30
2022-10-11T03:09:31.729Z,5.80
2022-10-11T03:11:58.070Z,5.50
2022-10-11T03:14:24.704Z,4.73
2022-10-11T03:16:51.659Z,4.97
2022-10-11T03:19:19.406Z,4.60
2022-10-11T03:21:46.170Z,4.53
2022-10-11T03:24:12.529Z,4.30
2022-10-11T03:26:38.907Z,5.43
2022-10-11T03:29:05.317Z,4.57
2022-10-11T03:31:31.623Z,4.70
2022-10-11T03:33:58.056Z,6.20
2022-10-11T03:36:24.392Z,6.97
2022-10-11T03:38:50.807Z,8.90
2022-10-11T03:41:17.157Z,10.87
2022-10-11T03:43:44.455Z,9.97
2022-10-11T03:46:10.933Z,8.17
2022-10-11T03:48:37.371Z,5.23
2022-10-11T03:51:03.740Z,6.97
2022-10-11T03:53:30.133Z,4.80
2022-10-11T03:55:56.531Z,4.83
2022-10-11T03:58:23.744Z,4.73
2022-10-11T04:00:51.756Z,4.83
2022-10-11T04:03:18.175Z,4.13
2022-10-11T04:05:45.054Z,8.63
2022-10-11T04:08:12.436Z,8.97
2022-10-11T04:10:40.073Z,10.87
2022-10-11T04:13:07.366Z,9.27
2022-10-11T04:15:33.780Z,6.43
2022-10-11T04:18:00.211Z,5.30
2022-10-11T04:20:26.530Z,5.93
2022-10-11T04:22:53.065Z,6.20
2022-10-11T04:25:19.564Z,5.13
2022-10-11T04:27:45.911Z,5.50
2022-10-11T04:30:12.803Z,5.27
2022-10-11T04:32:39.103Z,4.17
2022-10-11T04:35:05.921Z,5.50
2022-10-11T04:37:33.065Z,6.47
2022-10-11T04:39:59.576Z,4.03
2022-10-11T04:42:25.993Z,4.83
2022-10-11T04:44:52.316Z,5.47
2022-10-11T04:47:18.822Z,4.53
2022-10-11T04:49:45.286Z,5.40
2022-10-11T04:52:11.610Z,5.27
2022-10-11T04:54:38.008Z,5.00
2022-10-11T04:57:04.520Z,5.30
2022-10-11T04:59:30.979Z,5.13
2022-10-11T05:01:57.420Z,5.07
2022-10-11T05:04:23.846Z,4.77
2022-10-11T05:06:50.231Z,4.50
2022-10-11T05:09:16.606Z,3.83
2022-10-11T05:11:43.029Z,3.50
2022-10-11T05:14:09.354Z,3.83
2022-10-11T05:16:35.753Z,3.50
2022-10-11T05:19:02.093Z,4.27
2022-10-11T05:21:29.584Z,4.67
2022-10-11T05:23:57.186Z,4.03
2022-10-11T05:26:26.165Z,4.00
2022-10-11T05:28:52.817Z,4.10
2022-10-11T05:31:19.821Z,4.07
2022-10-11T05:33:46.218Z,3.80
2022-10-11T05:36:13.124Z,4.83
2022-10-11T05:38:39.593Z,4.43
2022-10-11T05:41:06.983Z,4.20
2022-10-11T05:43:33.326Z,4.57
2022-10-11T05:46:00.153Z,4.13
2022-10-11T05:48:26.875Z,5.07
2022-10-11T05:50:58.153Z,4.97
2022-10-11T05:53:24.515Z,4.10
2022-10-11T05:55:50.816Z,4.40
2022-10-11T05:58:18.525Z,4.17
2022-10-11T06:00:44.866Z,5.23
2022-10-11T06:03:12.920Z,5.00
2022-10-11T06:05:39.617Z,4.77
2022-10-11T06:08:07.196Z,3.50
2022-10-11T06:10:33.645Z,4.10
2022-10-11T06:13:00.059Z,4.47
2022-10-11T06:15:26.843Z,4.63
2022-10-11T06:17:53.192Z,3.90
2022-10-11T06:20:19.737Z,4.10
2022-10-11T06:22:46.366Z,3.83
2022-10-11T06:25:12.974Z,4.03
2022-10-11T06:27:39.293Z,4.23
2022-10-11T06:30:07.309Z,3.53
2022-10-11T06:32:34.006Z,3.40
2022-10-11T06:35:00.342Z,3.70
2022-10-11T06:37:26.706Z,3.37
2022-10-11T06:39:53.092Z,3.87
2022-10-11T06:42:19.451Z,4.20
2022-10-11T06:44:45.781Z,3.93
2022-10-11T06:47:12.153Z,3.73
2022-10-11T06:49:38.504Z,4.47
2022-10-11T06:52:05.044Z,4.23
2022-10-11T06:54:31.395Z,7.27
2022-10-11T06:56:58.329Z,13.93
2022-10-11T06:59:24.683Z,9.33
2022-10-11T07:01:51.057Z,4.70
2022-10-11T07:04:17.347Z,3.60
2022-10-11T07:06:43.656Z,3.83
2022-10-11T07:09:09.996Z,3.77
2022-10-11T07:11:36.346Z,4.60
2022-10-11T07:14:07.553Z,4.63
2022-10-11T07:16:36.014Z,4.40
2022-10-11T07:19:04.986Z,4.00
2022-10-11T07:21:33.594Z,5.60
2022-10-11T07:24:03.355Z,6.80
2022-10-11T07:26:35.231Z,7.73
2022-10-11T07:29:03.429Z,9.00
2022-10-11T07:31:30.572Z,6.40
2022-10-11T07:33:56.973Z,5.50
2022-10-11T07:36:23.375Z,4.40
2022-10-11T07:38:50.357Z,5.27
2022-10-11T07:41:16.918Z,3.30
2022-10-11T07:43:43.763Z,3.53
2022-10-11T07:46:11.172Z,3.43
2022-10-11T07:48:38.849Z,2.90
2022-10-11T07:51:11.178Z,3.03
2022-10-11T07:53:48.266Z,3.90
2022-10-11T07:56:17.392Z,2.97
2022-10-11T07:58:44.373Z,3.20
2022-10-11T08:01:11.308Z,3.90
2022-10-11T08:03:38.569Z,7.68
2022-10-11T08:06:09.007Z,2.95
2022-10-11T08:08:36.647Z,3.00
2022-10-11T08:11:03.635Z,2.53
2022-10-11T08:13:30.063Z,2.33
2022-10-11T08:15:56.451Z,2.92
2022-10-11T08:18:23.225Z,3.15
2022-10-11T08:20:49.705Z,2.50
2022-10-11T08:23:17.659Z,2.78
2022-10-11T08:25:45.925Z,2.88
2022-10-11T08:28:17.085Z,4.97
2022-10-11T08:30:51.465Z,3.67
2022-10-11T08:33:19.026Z,3.97
2022-10-11T08:35:45.918Z,3.00
2022-10-11T08:38:12.685Z,2.35
2022-10-11T08:40:55.648Z,3.47
2022-10-11T08:43:44.815Z,2.95
2022-10-11T08:46:13.099Z,3.00
2022-10-11T08:48:46.067Z,3.22
2022-10-11T08:51:27.504Z,2.72
2022-10-11T08:54:01.353Z,2.60
2022-10-11T08:56:32.233Z,2.30
2022-10-11T08:59:20.968Z,3.03
2022-10-11T09:01:53.039Z,2.30
2022-10-11T09:04:19.522Z,2.25
2022-10-11T09:07:24.216Z,3.13
2022-10-11T09:10:08.875Z,4.47
2022-10-11T09:13:09.978Z,2.17
2022-10-11T09:16:09.158Z,3.50
2022-10-11T09:19:13.128Z,3.10
2022-10-11T09:22:08.307Z,2.65
2022-10-11T09:24:47.297Z,2.75
2022-10-11T09:27:50.423Z,2.67
2022-10-11T09:30:19.906Z,2.95
2022-10-11T09:33:11.411Z,2.33
2022-10-11T09:35:44.200Z,3.15
2022-10-11T09:38:40.640Z,3.67
2022-10-11T09:41:17.627Z,2.33
2022-10-11T09:43:49.369Z,2.65
2022-10-11T09:46:22.052Z,2.60
2022-10-11T09:48:49.730Z,2.20
2022-10-11T09:51:22.040Z,1.92
2022-10-11T09:54:01.447Z,2.78
2022-10-11T09:56:30.734Z,2.45
2022-10-11T09:59:35.659Z,2.53
2022-10-11T10:02:14.313Z,2.10
2022-10-11T10:04:57.211Z,2.70
2022-10-11T10:07:24.090Z,2.17
2022-10-11T10:09:50.774Z,2.33
2022-10-11T10:12:22.404Z,2.13
2022-10-11T10:15:18.601Z,2.33
2022-10-11T10:17:50.044Z,2.22
2022-10-11T10:20:32.255Z,2.35
2022-10-11T10:23:07.304Z,2.25
2022-10-11T10:25:43.248Z,2.22
2022-10-11T10:28:25.084Z,2.50
2022-10-11T10:30:57.880Z,3.25
2022-10-11T10:33:29.610Z,2.65
2022-10-11T10:36:05.460Z,2.63
2022-10-11T10:38:40.651Z,2.33
2022-10-11T10:41:12.559Z,2.00
2022-10-11T10:43:41.787Z,2.33
2022-10-11T10:46:11.481Z,3.55
2022-10-11T10:49:52.411Z,2.55
2022-10-11T10:52:34.378Z,1.52
2022-10-11T10:55:26.079Z,1.60
2022-10-11T10:58:45.598Z,1.98
2022-10-11T11:01:23.727Z,2.72
2022-10-11T11:04:00.154Z,1.83
2022-10-11T11:06:47.738Z,1.95
2022-10-11T11:09:41.855Z,2.53
2022-10-11T11:12:23.433Z,2.38
2022-10-11T11:15:03.106Z,1.58
2022-10-11T11:17:36.867Z,2.13
2022-10-11T11:20:27.200Z,2.80
2022-10-11T11:23:27.251Z,2.63
2022-10-11T11:26:07.470Z,1.88
2022-10-11T11:28:42.350Z,1.35
2022-10-11T11:31:56.775Z,1.73
2022-10-11T11:34:33.872Z,1.58
2022-10-11T11:37:04.113Z,1.80
2022-10-11T11:39:36.446Z,0.82
2022-10-11T11:42:12.013Z,1.98
2022-10-11T11:44:42.467Z,1.90
2022-10-11T11:47:34.051Z,2.42
2022-10-11T11:50:22.330Z,1.60
2022-10-11T11:52:56.086Z,1.50
2022-10-11T11:55:37.077Z,1.40
2022-10-11T11:58:32.615Z,1.73
2022-10-11T12:01:05.171Z,2.00
2022-10-11T12:03:41.629Z,1.67
2022-10-11T12:06:14.258Z,1.25
2022-10-11T12:08:46.735Z,1.55
2022-10-11T12:11:27.248Z,1.60
2022-10-11T12:13:57.453Z,1.60
2022-10-11T12:16:23.816Z,1.20
2022-10-11T12:18:59.285Z,1.40
2022-10-11T12:21:35.450Z,1.55
2022-10-11T12:24:12.577Z,1.88
2022-10-11T12:26:47.117Z,1.25
2022-10-11T12:29:27.442Z,1.60
2022-10-11T12:32:00.821Z,1.98
2022-10-11T12:34:37.120Z,1.77
2022-10-11T12:37:19.567Z,0.75
2022-10-11T12:39:56.689Z,1.45
2022-10-11T12:42:25.245Z,1.40
2022-10-11T12:45:13.598Z,1.42
2022-10-11T12:48:17.847Z,0.85
2022-10-11T12:51:10.512Z,1.20
2022-10-11T12:54:24.896Z,1.15
2022-10-11T12:57:12.069Z,1.58
2022-10-11T12:59:43.799Z,1.27
2022-10-11T13:02:29.176Z,1.33
2022-10-11T13:05:18.204Z,1.20
2022-10-11T13:07:45.188Z,1.45
2022-10-11T13:10:15.916Z,1.50
2022-10-11T13:12:46.577Z,1.50
2022-10-11T13:15:17.274Z,1.30
2022-10-11T13:17:44.083Z,0.90
2022-10-11T13:20:19.587Z,1.35
2022-10-11T13:22:50.164Z,1.23
2022-10-11T13:25:23.409Z,1.88
2022-10-11T13:27:52.587Z,1.00
2022-10-11T13:30:34.327Z,1.13
2022-10-11T13:33:06.012Z,1.02
2022-10-11T13:35:35.623Z,1.05
2022-10-11T13:38:03.604Z,1.27
2022-10-11T13:40:31.042Z,1.52
2022-10-11T13:42:58.192Z,1.25
2022-10-11T13:45:28.002Z,1.65
2022-10-11T13:47:55.068Z,1.35
2022-10-11T13:50:32.364Z,1.40
2022-10-11T13:53:23.134Z,1.25
2022-10-11T13:55:56.054Z,1.23
2022-10-11T13:58:40.333Z,1.77
2022-10-11T14:01:18.584Z,1.10
2022-10-11T14:03:58.909Z,1.27
2022-10-11T14:06:56.774Z,1.52
2022-10-11T14:09:27.481Z,1.88
2022-10-11T14:11:54.780Z,1.42
2022-10-11T14:14:33.359Z,1.30
2022-10-11T14:17:32.461Z,1.83
2022-10-11T14:20:11.680Z,1.40
2022-10-11T14:22:38.631Z,1.30
2022-10-11T14:25:05.333Z,1.02
2022-10-11T14:27:31.747Z,1.52
2022-10-11T14:30:25.153Z,1.90
2022-10-11T14:32:47.732Z,1.50
2022-10-11T14:35:17.297Z,1.23
2022-10-11T14:37:44.111Z,1.55
2022-10-11T14:40:19.894Z,1.23
2022-10-11T14:42:46.572Z,1.60
2022-10-11T14:45:12.996Z,1.35
2022-10-11T14:47:42.981Z,2.15
2022-10-11T14:50:42.668Z,2.10
2022-10-11T14:53:11.026Z,1.95
2022-10-11T14:55:39.494Z,1.80
2022-10-11T14:58:07.672Z,1.55
2022-10-11T15:00:35.621Z,1.45
2022-10-11T15:03:02.110Z,1.40
2022-10-11T15:05:33.926Z,1.40
2022-10-11T15:08:01.545Z,1.63
2022-10-11T15:10:33.626Z,1.55
2022-10-11T15:13:00.438Z,1.92
2022-10-11T15:15:30.327Z,1.90
2022-10-11T15:17:59.049Z,2.33
2022-10-11T15:20:31.519Z,2.08
2022-10-11T15:23:00.078Z,1.77
2022-10-11T15:25:29.003Z,1.88
2022-10-11T15:27:55.786Z,1.33
2022-10-11T15:30:26.564Z,1.65
2022-10-11T15:32:53.443Z,1.42
2022-10-11T15:35:21.316Z,1.98
2022-10-11T15:37:47.662Z,1.58
2022-10-11T15:40:32.037Z,2.97
2022-10-11T15:42:58.375Z,1.30
2022-10-11T15:45:24.974Z,1.25
2022-10-11T15:47:51.703Z,1.75
2022-10-11T15:50:37.374Z,1.20
2022-10-11T15:53:07.852Z,1.83
2022-10-11T15:55:37.826Z,1.95
2022-10-11T15:58:04.433Z,1.73
2022-10-11T16:00:31.222Z,1.88
2022-10-11T16:02:59.282Z,7.05
2022-10-11T16:05:27.587Z,2.97
2022-10-11T16:07:54.601Z,1.95
2022-10-11T16:10:21.195Z,19.05
2022-10-11T16:12:47.657Z,33.53
2022-10-11T16:15:14.421Z,41.65
2022-10-11T16:17:40.769Z,8.98
2022-10-11T16:20:07.597Z,10.70
2022-10-11T16:22:35.025Z,19.17
2022-10-11T16:25:02.515Z,51.03
2022-10-11T16:27:28.963Z,13.77
2022-10-11T16:29:55.608Z,4.45
2022-10-11T16:32:22.841Z,3.67
2022-10-11T16:34:49.263Z,4.55
2022-10-11T16:37:16.399Z,11.35
2022-10-11T16:39:43.043Z,4.53
2022-10-11T16:42:09.416Z,74.88
2022-10-11T16:44:38.461Z,87.82
2022-10-11T16:47:06.125Z,10.50
2022-10-11T16:49:33.246Z,9.20
2022-10-11T16:52:00.685Z,5.50
2022-10-11T16:54:27.554Z,5.25
2022-10-11T16:56:53.967Z,49.90
2022-10-11T16:59:20.736Z,87.70
2022-10-11T17:01:47.174Z,6.97
2022-10-11T17:04:14.304Z,4.88
2022-10-11T17:06:41.095Z,9.52
2022-10-11T17:09:07.733Z,15.50
2022-10-11T17:11:37.172Z,14.15
2022-10-11T17:14:05.797Z,57.85
2022-10-11T17:16:32.179Z,151.77
2022-10-11T17:18:58.516Z,189.25
2022-10-11T17:21:25.153Z,93.55
2022-10-11T17:23:51.562Z,39.72
2022-10-11T17:26:22.098Z,26.05
2022-10-11T17:28:48.958Z,10.73
2022-10-11T17:31:15.531Z,5.68
2022-10-11T17:33:41.929Z,4.80
2022-10-11T17:36:20.575Z,5.15
2022-10-11T17:38:48.231Z,5.55
2022-10-11T17:41:15.019Z,4.50
2022-10-11T17:43:41.490Z,8.82
2022-10-11T17:46:08.973Z,6.93
2022-10-11T17:48:36.756Z,5.15
2022-10-11T17:51:11.353Z,5.00
2022-10-11T17:53:37.895Z,5.20
2022-10-11T17:56:09.003Z,5.40
2022-10-11T17:58:35.416Z,4.75
2022-10-11T18:01:06.783Z,4.93
2022-10-11T18:03:33.645Z,5.15
2022-10-11T18:06:04.045Z,5.07
2022-10-11T18:08:30.406Z,4.55
2022-10-11T18:10:56.812Z,4.45
2022-10-11T18:13:23.228Z,4.97
2022-10-11T18:15:53.519Z,5.47
2022-10-11T18:18:20.212Z,5.43
2022-10-11T18:20:50.288Z,6.05
2022-10-11T18:23:18.388Z,7.07
2022-10-11T18:25:45.649Z,6.57
2022-10-11T18:28:12.630Z,6.85
2022-10-11T18:30:43.803Z,6.60
2022-10-11T18:33:11.154Z,6.90
2022-10-11T18:35:37.993Z,10.70
2022-10-11T18:38:05.093Z,15.52
2022-10-11T18:40:32.000Z,12.40
2022-10-11T18:42:58.338Z,9.77
2022-10-11T18:45:24.638Z,10.45
2022-10-11T18:47:51.082Z,8.23
2022-10-11T18:50:18.134Z,8.38
2022-10-11T18:52:45.249Z,7.63
2022-10-11T18:55:11.663Z,6.45
2022-10-11T18:57:38.013Z,6.03
2022-10-11T19:00:22.489Z,6.30
2022-10-11T19:02:51.086Z,6.88
2022-10-11T19:05:17.433Z,7.45
2022-10-11T19:07:44.333Z,6.63
2022-10-11T19:10:10.694Z,7.15
2022-10-11T19:12:37.007Z,6.50
2022-10-11T19:15:03.648Z,6.20
2022-10-11T19:17:30.053Z,5.73
2022-10-11T19:19:56.400Z,6.25
2022-10-11T19:22:22.712Z,6.03
2022-10-11T19:24:49.079Z,6.83
2022-10-11T19:27:15.416Z,6.60
2022-10-11T19:29:41.752Z,6.50
2022-10-11T19:32:08.151Z,6.83
2022-10-11T19:34:34.554Z,7.07
2022-10-11T19:37:01.215Z,7.90
2022-10-11T19:39:28.529Z,7.33
2022-10-11T19:41:54.842Z,6.70
2022-10-11T19:44:21.156Z,7.60
2022-10-11T19:46:52.017Z,6.40
2022-10-11T19:49:22.362Z,5.90
2022-10-11T19:51:48.708Z,6.50
2022-10-11T19:54:15.514Z,5.93
2022-10-11T19:56:42.568Z,7.67
2022-10-11T19:59:10.985Z,7.70
2022-10-11T20:01:39.666Z,6.97
2022-10-11T20:04:08.654Z,8.20
2022-10-11T20:06:39.000Z,7.57
2022-10-11T20:11:53.977Z,7.23
2022-10-11T20:14:20.538Z,7.20
2022-10-11T20:16:49.767Z,5.97
2022-10-11T20:19:16.296Z,5.23
2022-10-11T20:21:42.666Z,5.83
2022-10-11T20:24:08.985Z,4.90
2022-10-11T20:26:35.391Z,6.53
2022-10-11T20:29:01.761Z,6.17
2022-10-11T20:31:33.312Z,5.60
2022-10-11T20:34:02.319Z,5.50
2022-10-11T20:36:30.146Z,5.00
2022-10-11T20:38:58.019Z,5.03
2022-10-11T20:41:27.467Z,5.13
2022-10-11T20:43:56.611Z,4.97
2022-10-11T20:46:25.437Z,5.43
2022-10-11T20:48:58.910Z,5.87
2022-10-11T20:51:28.769Z,4.70
2022-10-11T20:53:56.348Z,5.30
2022-10-11T20:56:23.130Z,6.50
2022-10-11T20:58:54.485Z,5.53
2022-10-11T21:01:24.044Z,4.53
2022-10-11T21:03:50.438Z,4.23
2022-10-11T21:06:16.988Z,5.10
2022-10-11T21:08:44.124Z,4.97
2022-10-11T21:11:10.930Z,4.80
2022-10-11T21:13:38.006Z,4.37
2022-10-11T21:16:11.333Z,5.80
2022-10-11T21:18:38.067Z,4.97
2022-10-11T21:21:07.822Z,6.50
2022-10-11T21:23:34.701Z,5.53
2022-10-11T21:26:06.934Z,4.90
2022-10-11T21:28:34.019Z,6.60
2022-10-11T21:31:11.431Z,4.20
2022-10-11T21:33:38.940Z,4.27
2022-10-11T21:36:16.757Z,4.10
2022-10-11T21:38:43.428Z,4.60
2022-10-11T21:41:15.723Z,4.60
2022-10-11T21:43:42.153Z,4.90
2022-10-11T21:46:10.861Z,3.60
2022-10-11T21:48:37.303Z,3.87
2022-10-11T21:51:03.780Z,3.67
2022-10-11T21:53:30.135Z,4.13
2022-10-11T21:55:57.916Z,3.53
2022-10-11T21:58:24.313Z,3.93
2022-10-11T22:00:50.675Z,4.50
2022-10-11T22:03:16.989Z,3.13
2022-10-11T22:05:47.431Z,4.10
2022-10-11T22:08:14.842Z,3.67
2022-10-11T22:10:51.560Z,3.80
2022-10-11T22:13:17.918Z,3.63
2022-10-11T22:15:44.246Z,3.10
2022-10-11T22:18:10.658Z,3.33
2022-10-11T22:20:36.981Z,3.23
2022-10-11T22:23:03.519Z,3.73
2022-10-11T22:25:30.595Z,2.90
2022-10-11T22:27:56.945Z,3.87
2022-10-11T22:30:23.286Z,3.90
2022-10-11T22:32:51.065Z,4.00
2022-10-11T22:35:17.459Z,3.63
2022-10-11T22:37:43.950Z,4.27
2022-10-11T22:40:10.473Z,3.30
2022-10-11T22:42:36.971Z,3.83
2022-10-11T22:45:04.057Z,3.87
2022-10-11T22:47:30.464Z,3.33
2022-10-11T22:49:56.802Z,3.23
2022-10-11T22:52:23.143Z,3.10
2022-10-11T22:54:49.484Z,4.80
2022-10-11T22:57:15.792Z,4.10
2022-10-11T22:59:42.136Z,4.90
2022-10-11T23:02:08.656Z,3.80
2022-10-11T23:04:35.008Z,3.17
2022-10-11T23:07:04.987Z,3.10
2022-10-11T23:09:31.741Z,3.43
2022-10-11T23:11:59.114Z,4.17
2022-10-11T23:14:25.487Z,3.27
2022-10-11T23:16:52.022Z,4.87
2022-10-11T23:19:18.563Z,4.30
2022-10-11T23:21:44.922Z,3.83
2022-10-11T23:24:11.303Z,3.40
2022-10-11T23:26:38.189Z,6.40
2022-10-11T23:29:04.535Z,4.50
2022-10-11T23:31:30.927Z,4.30
2022-10-11T23:33:57.527Z,3.87
2022-10-11T23:36:25.850Z,4.20
2022-10-11T23:38:54.914Z,3.63
2022-10-11T23:41:22.813Z,4.13
2022-10-11T23:43:49.239Z,4.00
2022-10-11T23:46:15.732Z,4.60
2022-10-11T23:48:42.135Z,3.67
2022-10-11T23:51:08.554Z,3.73
2022-10-11T23:53:35.648Z,4.23
2022-10-11T23:56:02.327Z,3.13
2022-10-11T23:58:28.754Z,4.00
